Time;durP1;ratioP1;P1;durP2;ratioP2;P2;SDS_P1;SDS_P2;PMS_P1;PMS_P2;Temp;Humidity;BMP_temperature;BMP_pressure;BME280_temperature;BME280_humidity;BME280_pressure;Samples;Min_cycle;Max_cycle;Signal;HPM_P1;HPM_P2
2021/10/02 00:31:15;;;;;;;5.17;2.87;;;;;;;17.85;36.07;102773.25;1719758;83;21021;-50
2021/10/02 00:37:36;;;;;;;5.78;2.60;;;;;;;17.70;36.15;102756.42;1787982;80;21049;-49
2021/10/02 00:45:30;;;;;;;9.90;3.40;;;;;;;17.68;36.32;102752.11;1779457;80;20997;-50
2021/10/02 00:47:57;;;;;;;6.28;3.00;;;;;;;17.64;36.07;102751.28;1779407;80;21028;-50
2021/10/02 00:50:26;;;;;;;8.55;3.30;;;;;;;17.63;36.20;102749.56;1779756;80;21494;-50
2021/10/02 00:52:53;;;;;;;6.40;2.92;;;;;;;17.61;36.46;102743.45;1778595;80;21038;-49
2021/10/02 00:55:20;;;;;;;11.83;3.55;;;;;;;17.61;36.17;102747.84;1776196;79;21016;-50
2021/10/02 00:57:47;;;;;;;6.58;2.80;;;;;;;17.60;36.17;102743.47;1776318;80;21006;-48
2021/10/02 01:00:14;;;;;;;12.43;3.27;;;;;;;17.60;36.09;102748.28;1779282;80;20978;-49
2021/10/02 01:03:11;;;;;;;5.35;2.95;;;;;;;17.60;36.12;102743.47;1778044;80;21009;-47
2021/10/02 01:06:09;;;;;;;5.87;2.98;;;;;;;17.59;36.25;102743.94;1764680;81;21045;-49
2021/10/02 01:08:44;;;;;;;7.53;2.62;;;;;;;17.58;35.47;102742.19;1765097;81;21057;-50
2021/10/02 01:11:57;;;;;;;5.75;3.52;;;;;;;17.57;35.77;102738.28;1650611;86;21079;-48
2021/10/02 01:14:37;;;;;;;3.15;2.60;;;;;;;17.55;35.90;102742.27;1608267;88;21057;-50
2021/10/02 01:17:36;;;;;;;5.67;2.98;;;;;;;17.50;35.68;102734.89;1612532;88;21088;-50
2021/10/02 01:20:12;;;;;;;5.53;2.70;;;;;;;17.49;35.72;102745.02;1576356;90;21056;-50
2021/10/02 01:22:56;;;;;;;6.03;3.30;;;;;;;17.47;36.12;102737.56;1582039;90;21005;-49
2021/10/02 01:25:44;;;;;;;4.55;3.10;;;;;;;17.47;36.62;102737.56;1551691;92;21090;-50
2021/10/02 01:28:18;;;;;;;10.88;3.33;;;;;;;17.46;36.79;102737.56;1526763;93;21084;-47
2021/10/02 01:33:54;;;;;;;7.78;3.55;;;;;;;17.43;37.24;102738.52;1547717;92;21090;-49
2021/10/02 01:47:20;;;;;;;6.42;3.20;;;;;;;17.38;37.49;102735.09;1501977;95;21120;-49
2021/10/02 01:49:51;;;;;;;4.45;2.90;;;;;;;17.37;37.53;102745.18;1500790;95;21616;-50
2021/10/02 01:52:23;;;;;;;4.78;3.67;;;;;;;17.36;37.62;102736.88;1500962;95;21128;-49
2021/10/02 01:54:51;;;;;;;4.58;2.98;;;;;;;17.36;37.65;102741.27;1477581;96;21576;-47
2021/10/02 01:57:18;;;;;;;8.25;3.10;;;;;;;17.35;37.38;102736.45;1454719;96;21113;-50
2021/10/02 01:59:45;;;;;;;4.03;3.05;;;;;;;17.35;37.25;102742.19;1478024;96;21074;-47
2021/10/02 02:02:13;;;;;;;7.42;3.90;;;;;;;17.35;37.46;102744.34;1477749;96;21554;-49
2021/10/02 02:04:39;;;;;;;6.85;4.80;;;;;;;17.33;39.58;102743.50;1467811;96;21122;-49
2021/10/02 02:07:07;;;;;;;10.70;5.33;;;;;;;17.30;40.77;102739.63;1486485;95;21150;-50
2021/10/02 02:12:13;;;;;;;9.88;6.05;;;;;;;17.16;42.50;102743.40;1488138;96;21612;-50
2021/10/02 02:14:41;;;;;;;9.78;6.10;;;;;;;17.05;43.06;102740.95;1483921;96;21068;-47
2021/10/02 02:17:08;;;;;;;10.40;6.22;;;;;;;16.95;43.67;102744.63;1513183;94;21120;-50
2021/10/02 02:19:34;;;;;;;10.95;6.90;;;;;;;16.84;44.20;102738.66;1550840;92;21128;-50
2021/10/02 02:22:03;;;;;;;10.88;7.37;;;;;;;16.73;44.69;102743.25;1515288;92;21135;-48
2021/10/02 02:24:32;;;;;;;9.60;6.12;;;;;;;16.63;45.11;102746.91;1554711;92;21075;-48
2021/10/02 02:27:03;;;;;;;9.23;6.40;;;;;;;16.52;45.75;102742.25;1556793;92;21297;-50
2021/10/02 02:29:32;;;;;;;9.65;6.33;;;;;;;16.44;46.37;102741.47;1558910;92;21153;-50
2021/10/02 02:32:01;;;;;;;9.85;6.20;;;;;;;16.35;46.90;102737.64;1560670;92;21123;-50
2021/10/02 02:36:58;;;;;;;8.98;6.47;;;;;;;16.18;47.71;102735.25;1494874;96;21218;-47
2021/10/02 02:39:25;;;;;;;11.95;7.25;;;;;;;16.13;48.02;102735.33;1462196;98;21158;-48
2021/10/02 02:41:52;;;;;;;8.08;6.22;;;;;;;16.08;48.21;102733.20;1462143;98;21065;-51
2021/10/02 02:44:19;;;;;;;8.60;6.17;;;;;;;16.04;48.56;102738.06;1462391;97;21613;-50
2021/10/02 02:46:51;;;;;;;9.70;6.70;;;;;;;16.01;48.76;102732.84;1462541;98;21145;-47
2021/10/02 02:49:29;;;;;;;8.33;6.03;;;;;;;16.00;48.93;102735.06;1463858;96;21636;-50
2021/10/02 02:52:04;;;;;;;13.05;6.95;;;;;;;15.99;49.10;102730.67;1556128;90;21098;-48
2021/10/02 02:54:42;;;;;;;9.90;6.58;;;;;;;15.98;49.05;102735.95;1560096;90;21076;-50
2021/10/02 02:57:17;;;;;;;13.78;6.55;;;;;;;15.94;49.10;102734.27;1560244;90;21099;-50
2021/10/02 03:00:13;;;;;;;14.43;6.53;;;;;;;15.87;49.37;102737.41;1560153;90;21048;-50
2021/10/02 03:02:44;;;;;;;10.25;6.35;;;;;;;15.81;49.55;102732.23;1560393;90;21084;-48
2021/10/02 03:05:11;;;;;;;10.00;7.12;;;;;;;15.76;49.76;102728.81;1560295;90;21141;-47
2021/10/02 03:07:41;;;;;;;11.95;6.10;;;;;;;15.71;49.82;102730.60;1560385;90;21064;-51
2021/10/02 03:10:11;;;;;;;9.03;5.90;;;;;;;15.68;49.79;102728.03;1560292;90;21088;-50
2021/10/02 03:12:41;;;;;;;9.00;6.92;;;;;;;15.67;49.68;102726.27;1549726;90;21155;-49
2021/10/02 03:15:12;;;;;;;11.18;7.60;;;;;;;15.65;49.55;102724.55;1560141;92;21639;-49
2021/10/02 03:17:40;;;;;;;;;;;;;;;15.64;49.83;102728.92;1562645;90;21076;-47
2021/10/02 03:20:11;;;;;;;12.93;6.75;;;;;;;15.64;49.81;102722.83;1560126;90;20118;-50
2021/10/02 03:22:38;;;;;;;8.88;5.97;;;;;;;15.61;49.56;102725.04;1557389;90;21036;-51
2021/10/02 03:25:06;;;;;;;9.08;6.05;;;;;;;15.57;49.65;102723.77;1560365;90;21071;-49
2021/10/02 03:27:33;;;;;;;12.03;7.12;;;;;;;15.53;49.48;102728.19;1560286;90;21090;-49
2021/10/02 03:30:00;;;;;;;9.65;6.12;;;;;;;15.50;49.55;102724.27;1550516;91;21608;-49
2021/10/02 03:32:27;;;;;;;10.00;6.87;;;;;;;15.48;49.43;102728.67;1544012;93;21073;-50
2021/10/02 03:34:54;;;;;;;6.95;5.83;;;;;;;15.44;49.48;102725.22;1573256;91;21048;-49
2021/10/02 03:37:21;;;;;;;9.45;5.80;;;;;;;15.42;49.39;102722.14;1594896;89;21087;-47
2021/10/02 03:39:47;;;;;;;10.28;6.47;;;;;;;15.40;49.37;102719.98;1619309;87;21053;-52
2021/10/02 03:42:17;;;;;;;11.85;6.67;;;;;;;15.40;49.44;102719.98;1624869;88;21046;-50
2021/10/02 03:44:46;;;;;;;;;;;;;;;15.38;49.24;102719.13;1626976;87;21108;-50
2021/10/02 03:47:15;;;;;;;11.10;6.45;;;;;;;15.32;49.33;102723.12;1624803;87;20454;-50
2021/10/02 03:49:42;;;;;;;8.08;6.37;;;;;;;15.30;49.47;102719.66;1624949;87;21492;-51
2021/10/02 03:52:09;;;;;;;9.80;6.05;;;;;;;15.26;49.28;102717.95;1740265;82;21077;-50
2021/10/02 03:54:35;;;;;;;11.38;5.95;;;;;;;15.24;49.08;102717.09;1738099;82;21064;-47
2021/10/02 03:57:03;;;;;;;8.05;6.15;;;;;;;15.22;48.65;102721.05;1739016;82;21514;-50
2021/10/02 03:59:30;;;;;;;11.57;6.60;;;;;;;15.18;48.72;102714.53;1747995;82;21038;-50
2021/10/02 04:01:57;;;;;;;7.35;5.92;;;;;;;15.16;48.66;102718.92;1739335;82;21045;-49
2021/10/02 04:04:24;;;;;;;7.42;5.90;;;;;;;15.15;48.74;102719.80;1739105;82;21001;-50
2021/10/02 04:06:52;;;;;;;9.23;6.37;;;;;;;15.14;48.57;102724.19;1738375;82;21465;-50
2021/10/02 04:09:20;;;;;;;9.68;5.45;;;;;;;15.13;48.29;102718.94;1738593;82;21010;-50
2021/10/02 04:11:47;;;;;;;11.15;6.30;;;;;;;15.11;48.09;102723.33;1734714;82;21010;-51
2021/10/02 04:14:14;;;;;;;9.18;6.15;;;;;;;15.07;47.99;102725.55;1741226;82;21002;-50
2021/10/02 04:16:43;;;;;;;9.55;6.25;;;;;;;15.06;48.21;102722.52;1746301;82;21006;-49
2021/10/02 04:19:11;;;;;;;8.85;6.28;;;;;;;15.05;48.08;102723.38;1738209;82;21005;-48
2021/10/02 04:21:38;;;;;;;7.67;6.25;;;;;;;15.04;48.02;102719.05;1742604;82;20990;-50
2021/10/02 04:24:05;;;;;;;8.13;6.12;;;;;;;15.00;47.82;102714.71;1738304;82;21013;-49
2021/10/02 04:26:32;;;;;;;6.85;5.83;;;;;;;14.97;47.78;102722.16;1740558;82;21525;-48
2021/10/02 04:29:00;;;;;;;8.08;5.85;;;;;;;14.92;47.76;102720.00;1745835;81;21608;-53
2021/10/02 04:31:27;;;;;;;13.68;6.00;;;;;;;14.90;47.80;102722.23;1773863;80;21493;-50
2021/10/02 04:33:54;;;;;;;8.23;5.65;;;;;;;14.88;47.69;102723.53;1774917;80;21072;-50
2021/10/02 04:36:21;;;;;;;12.13;5.72;;;;;;;14.86;47.83;102719.20;1774537;80;21010;-50
2021/10/02 04:38:49;;;;;;;7.08;6.20;;;;;;;14.84;47.93;102723.12;1772170;80;21044;-50
2021/10/02 04:41:15;;;;;;;7.85;5.80;;;;;;;14.82;47.35;102720.96;1771354;80;20989;-49
2021/10/02 04:43:44;;;;;;;8.08;5.97;;;;;;;14.77;47.50;102720.58;1771929;80;21525;-48
2021/10/02 04:46:11;;;;;;;8.88;6.20;;;;;;;14.75;47.67;102723.22;1781348;80;21022;-49
2021/10/02 04:48:40;;;;;;;9.50;5.53;;;;;;;14.71;47.76;102725.44;1773312;80;20994;-50
2021/10/02 04:51:07;;;;;;;7.35;5.75;;;;;;;14.68;47.62;102727.63;1771982;80;21018;-52
2021/10/02 04:53:33;;;;;;;9.00;6.20;;;;;;;14.65;47.49;102721.09;1771063;80;21001;-50
2021/10/02 04:56:05;;;;;;;9.15;6.65;;;;;;;14.62;47.55;102718.52;1771621;80;21021;-49
2021/10/02 04:58:29;;;;;;;9.10;5.53;;;;;;;14.60;47.56;102716.34;1774071;80;21442;-50
2021/10/02 05:00:56;;;;;;;8.78;5.83;;;;;;;14.60;47.74;102718.96;1773840;80;21025;-47
2021/10/02 05:03:23;;;;;;;10.00;6.20;;;;;;;14.62;47.86;102717.63;1774663;80;21005;-50
2021/10/02 05:05:50;;;;;;;7.83;6.22;;;;;;;14.65;47.99;102721.09;1774540;80;20990;-49
2021/10/02 05:08:18;;;;;;;8.48;6.08;;;;;;;14.66;47.69;102719.34;1774369;80;21021;-50
2021/10/02 05:10:47;;;;;;;10.53;6.60;;;;;;;14.66;47.71;102716.30;1785126;80;21525;-47
2021/10/02 05:13:15;;;;;;;9.33;5.50;;;;;;;14.67;47.79;102716.70;1770716;80;21013;-49
2021/10/02 05:15:42;;;;;;;8.88;5.40;;;;;;;14.67;48.04;102718.02;1775949;80;21546;-47
2021/10/02 05:18:08;;;;;;;10.10;6.03;;;;;;;14.72;48.09;102724.97;1781503;80;21557;-49
2021/10/02 05:20:37;;;;;;;6.62;5.17;;;;;;;14.71;48.02;102723.25;1774817;80;21489;-49
2021/10/02 05:23:04;;;;;;;7.28;5.95;;;;;;;14.74;47.96;102720.59;1772094;80;21100;-50
2021/10/02 05:25:30;;;;;;;12.65;6.87;;;;;;;14.78;48.23;102726.23;1771352;80;20969;-49
2021/10/02 05:27:58;;;;;;;13.78;6.10;;;;;;;14.81;48.17;102726.22;1771925;80;20959;-49
2021/10/02 05:30:25;;;;;;;11.25;7.15;;;;;;;14.83;48.19;102726.64;1771116;80;21576;-50
2021/10/02 05:32:52;;;;;;;10.55;6.47;;;;;;;14.82;48.00;102725.36;1767044;80;21044;-50
2021/10/02 05:35:19;;;;;;;9.23;6.15;;;;;;;14.83;48.18;102727.08;1766749;80;21546;-50
2021/10/02 05:37:46;;;;;;;12.68;5.67;;;;;;;14.83;47.99;102727.08;1765788;80;21006;-49
2021/10/02 05:40:13;;;;;;;7.87;5.92;;;;;;;14.83;48.06;102732.33;1766802;80;21021;-51
2021/10/02 05:42:40;;;;;;;13.00;6.90;;;;;;;14.84;47.97;102730.99;1769345;80;21501;-49
2021/10/02 05:45:07;;;;;;;12.80;6.17;;;;;;;14.85;48.13;102729.25;1768800;80;21010;-50
2021/10/02 05:47:35;;;;;;;10.55;6.22;;;;;;;14.88;48.21;102730.55;1778325;80;21026;-50
2021/10/02 05:50:03;;;;;;;7.97;6.10;;;;;;;14.94;48.17;102731.80;1765677;80;20965;-49
2021/10/02 05:52:29;;;;;;;10.75;5.87;;;;;;;15.00;48.10;102730.44;1767543;80;21529;-50
2021/10/02 05:54:56;;;;;;;9.05;6.65;;;;;;;15.06;48.11;102734.31;1769282;80;21040;-47
2021/10/02 05:57:22;;;;;;;8.78;6.55;;;;;;;15.13;48.05;102735.98;1768730;80;20954;-50
2021/10/02 05:59:49;;;;;;;11.75;6.50;;;;;;;15.18;48.02;102733.77;1769051;80;21554;-50
2021/10/02 06:02:15;;;;;;;9.43;7.42;;;;;;;15.25;47.86;102730.65;1768842;80;21069;-47
2021/10/02 06:04:42;;;;;;;9.15;6.83;;;;;;;15.32;47.86;102726.62;1766615;80;21011;-51
2021/10/02 06:07:09;;;;;;;10.80;6.83;;;;;;;15.40;47.67;102727.85;1770615;80;21489;-51
2021/10/02 06:09:35;;;;;;;7.55;6.47;;;;;;;15.51;47.52;102729.97;1776423;80;21021;-46
2021/10/02 06:12:03;;;;;;;8.28;6.08;;;;;;;15.59;47.38;102724.63;1769236;80;21022;-50
2021/10/02 06:14:30;;;;;;;11.03;6.60;;;;;;;15.68;47.42;102733.72;1770323;80;20979;-47
2021/10/02 06:16:57;;;;;;;9.20;6.80;;;;;;;15.74;47.44;102725.33;1772302;80;21478;-48
2021/10/02 06:19:24;;;;;;;9.23;6.80;;;;;;;15.80;47.78;102725.25;1769366;80;21069;-51
2021/10/02 06:21:50;;;;;;;8.35;6.58;;;;;;;15.88;47.96;102732.59;1768697;80;21014;-50
2021/10/02 06:24:17;;;;;;;8.63;6.10;;;;;;;15.96;48.04;102724.17;1767664;80;21042;-50
2021/10/02 06:26:45;;;;;;;11.78;6.33;;;;;;;16.05;47.88;102724.03;1770004;80;21034;-50
2021/10/02 06:29:12;;;;;;;10.40;6.72;;;;;;;16.13;47.85;102724.83;1768879;80;21013;-50
2021/10/02 06:31:39;;;;;;;9.15;5.70;;;;;;;16.19;47.72;102720.80;1768872;80;21489;-47
2021/10/02 06:34:07;;;;;;;13.48;6.30;;;;;;;16.29;47.34;102721.09;1768451;80;21039;-48
2021/10/02 06:36:35;;;;;;;11.90;5.65;;;;;;;16.38;47.07;102719.22;1769166;80;21025;-50
2021/10/02 06:39:02;;;;;;;8.20;5.78;;;;;;;16.48;46.65;102724.76;1768507;80;21006;-51
2021/10/02 06:41:29;;;;;;;9.43;6.40;;;;;;;16.57;46.46;102724.20;1766025;80;20982;-49
2021/10/02 06:43:57;;;;;;;6.40;5.00;;;;;;;16.67;46.67;102721.84;1770488;80;21463;-49
2021/10/02 06:46:24;;;;;;;7.15;4.35;;;;;;;16.77;46.76;102719.52;1779726;80;21026;-50
2021/10/02 06:48:51;;;;;;;10.30;4.60;;;;;;;16.89;46.84;102724.57;1779600;80;20986;-50
2021/10/02 06:51:18;;;;;;;8.55;4.95;;;;;;;17.00;46.67;102721.77;1763204;80;21415;-50
2021/10/02 06:53:45;;;;;;;10.60;6.15;;;;;;;17.09;46.56;102722.91;1765240;80;20971;-49
2021/10/02 06:56:13;;;;;;;7.35;4.60;;;;;;;17.17;46.65;102724.95;1777049;80;20986;-47
2021/10/02 06:58:40;;;;;;;5.42;4.40;;;;;;;17.26;46.77;102725.23;1765087;80;21034;-50
2021/10/02 07:01:07;;;;;;;10.18;4.80;;;;;;;17.34;46.76;102728.59;1772734;80;21066;-51
2021/10/02 07:03:34;;;;;;;34.88;15.53;;;;;;;17.38;46.36;102723.25;1777535;80;21030;-50
2021/10/02 07:06:02;;;;;;;9.73;5.45;;;;;;;17.43;46.27;102725.36;1768611;80;21006;-50
2021/10/02 07:08:29;;;;;;;7.78;4.33;;;;;;;17.49;46.11;102721.33;1764917;80;21547;-50
2021/10/02 07:10:58;;;;;;;6.25;5.15;;;;;;;17.54;45.98;102715.50;1771223;80;21010;-51
2021/10/02 07:13:24;;;;;;;7.47;4.62;;;;;;;17.58;45.84;102719.81;1768699;80;21447;-50
2021/10/02 07:15:53;;;;;;;6.30;3.90;;;;;;;17.62;45.92;102718.84;1769373;80;21030;-50
2021/10/02 07:18:21;;;;;;;5.75;4.20;;;;;;;17.65;46.00;102717.48;1768256;80;21010;-51
2021/10/02 07:20:47;;;;;;;6.53;3.58;;;;;;;17.72;45.92;102720.40;1714460;84;21061;-50
2021/10/02 07:23:19;;;;;;;7.55;3.58;;;;;;;17.77;45.55;102723.82;1710855;83;21526;-47
2021/10/02 07:25:44;;;;;;;30.92;16.87;;;;;;;17.82;45.11;102715.83;1700897;83;21593;-50
2021/10/02 07:28:12;;;;;;;9.08;4.97;;;;;;;17.85;44.59;102719.27;1730527;82;20994;-50
2021/10/02 07:30:38;;;;;;;6.37;4.08;;;;;;;17.89;44.18;102723.56;1703920;83;21062;-49
2021/10/02 07:33:06;;;;;;;9.75;5.08;;;;;;;17.93;44.23;102715.14;1732502;81;21030;-48
2021/10/02 07:35:35;;;;;;;7.50;3.80;;;;;;;17.97;44.10;102712.86;1729518;83;20998;-46
2021/10/02 07:38:02;;;;;;;10.23;3.42;;;;;;;18.01;43.49;102720.27;1707871;83;21002;-51
2021/10/02 07:40:30;;;;;;;4.30;3.72;;;;;;;18.03;43.50;102719.34;1699746;83;21553;-49
2021/10/02 07:42:59;;;;;;;5.95;3.40;;;;;;;18.06;43.68;102719.70;1719739;83;21569;-50
2021/10/02 07:45:26;;;;;;;8.60;3.55;;;;;;;18.08;43.69;102717.89;1707769;84;21482;-47
2021/10/02 07:47:56;;;;;;;8.60;3.45;;;;;;;18.10;43.71;102718.73;1703788;83;21085;-50
2021/10/02 07:50:23;;;;;;;6.37;3.85;;;;;;;18.12;43.73;102728.78;1720707;83;21561;-50
2021/10/02 07:52:55;;;;;;;6.22;4.03;;;;;;;18.15;43.89;102720.39;1726326;83;21026;-49
2021/10/02 07:55:22;;;;;;;5.00;3.77;;;;;;;18.19;43.63;102730.40;1637416;87;21548;-50
2021/10/02 07:57:49;;;;;;;8.30;3.95;;;;;;;18.21;43.81;102724.64;1644591;86;21044;-50
2021/10/02 08:00:19;;;;;;;12.00;5.60;;;;;;;18.21;43.75;102720.25;1675413;85;21065;-53
2021/10/02 08:02:55;;;;;;;9.58;4.12;;;;;;;18.23;43.98;102720.20;1678183;85;21489;-48
2021/10/02 08:05:22;;;;;;;6.25;4.35;;;;;;;18.27;43.84;102723.19;1678833;85;21002;-51
2021/10/02 08:07:49;;;;;;;6.60;4.47;;;;;;;18.29;43.77;102720.06;1678083;85;21060;-47
2021/10/02 08:10:20;;;;;;;7.33;4.35;;;;;;;18.31;44.00;102719.14;1667313;85;21033;-50
2021/10/02 08:12:48;;;;;;;4.90;3.90;;;;;;;18.31;43.88;102718.27;1666737;85;21508;-51
2021/10/02 08:15:17;;;;;;;8.13;3.83;;;;;;;18.31;43.88;102718.27;1667203;85;21832;-48
2021/10/02 08:17:44;;;;;;;11.35;3.65;;;;;;;18.31;43.87;102721.77;1673246;85;21073;-50
2021/10/02 08:20:17;;;;;;;5.85;3.70;;;;;;;18.35;43.75;102720.80;1677310;84;20997;-50
2021/10/02 08:22:48;;;;;;;7.10;4.20;;;;;;;18.37;43.53;102720.75;1677830;85;21010;-48
2021/10/02 08:25:17;;;;;;;6.20;3.97;;;;;;;18.39;43.34;102716.31;1673468;85;21525;-49
2021/10/02 08:27:45;;;;;;;6.65;3.62;;;;;;;18.41;43.28;102716.70;1673833;85;21160;-48
2021/10/02 08:30:15;;;;;;;9.90;4.17;;;;;;;18.44;43.34;102711.85;1678702;84;21128;-49
2021/10/02 08:32:42;;;;;;;8.43;4.53;;;;;;;18.47;43.14;102710.00;1665315;86;21170;-50
2021/10/02 08:35:10;;;;;;;9.33;3.90;;;;;;;18.50;42.74;102710.39;1672931;85;21006;-50
2021/10/02 08:37:38;;;;;;;7.35;4.05;;;;;;;18.52;42.74;102704.63;1677098;85;21056;-50
2021/10/02 08:40:08;;;;;;;6.35;3.77;;;;;;;18.53;42.49;102701.94;1665380;86;21594;-50
2021/10/02 08:42:39;;;;;;;5.80;4.10;;;;;;;18.57;42.54;102708.00;1632983;87;21026;-49
2021/10/02 08:45:08;;;;;;;5.42;3.90;;;;;;;18.59;42.58;102708.83;1677650;85;21057;-47
2021/10/02 08:47:36;;;;;;;5.78;3.80;;;;;;;18.63;42.72;102710.48;1676432;85;21505;-50
2021/10/02 08:50:05;;;;;;;7.37;4.05;;;;;;;18.66;42.41;102703.39;1668135;85;21525;-50
2021/10/02 08:52:32;;;;;;;5.42;3.80;;;;;;;18.69;42.38;102711.69;1744857;80;20995;-51
2021/10/02 08:54:59;;;;;;;6.03;4.55;;;;;;;18.72;42.31;102712.04;1764836;80;20958;-50
2021/10/02 08:57:27;;;;;;;4.85;3.95;;;;;;;18.75;42.45;102702.75;1782280;80;20977;-49
2021/10/02 08:59:55;;;;;;;7.62;3.85;;;;;;;18.78;41.96;102706.61;1782072;80;20950;-50
2021/10/02 09:02:24;;;;;;;24.00;5.35;;;;;;;18.79;42.06;102703.96;1789703;80;21054;-53
2021/10/02 09:04:53;;;;;;;7.05;3.72;;;;;;;18.83;42.12;102699.02;1777199;80;21006;-53
2021/10/02 09:07:20;;;;;;;4.80;3.33;;;;;;;18.85;41.59;102699.84;1750593;80;21060;-47
2021/10/02 09:09:49;;;;;;;7.28;4.12;;;;;;;18.87;41.27;102696.72;1789858;80;20994;-47
2021/10/02 09:12:20;;;;;;;7.90;4.05;;;;;;;18.88;41.02;102702.39;1784992;80;20954;-49
2021/10/02 09:14:52;;;;;;;6.42;3.67;;;;;;;18.91;41.33;102698.38;1780438;79;21588;-50
2021/10/02 09:17:21;;;;;;;5.28;4.15;;;;;;;18.95;41.23;102704.42;1779494;80;21031;-50
2021/10/02 09:19:48;;;;;;;4.62;4.10;;;;;;;18.96;41.45;102696.46;1789416;80;21520;-50
2021/10/02 09:22:18;;;;;;;7.37;4.12;;;;;;;19.00;41.67;102695.48;1780078;80;21019;-47
2021/10/02 09:24:47;;;;;;;4.72;3.75;;;;;;;19.02;40.92;102693.66;1770734;80;21046;-47
2021/10/02 09:27:20;;;;;;;5.92;3.80;;;;;;;19.02;40.79;102700.73;1777969;80;21010;-47
2021/10/02 09:29:56;;;;;;;11.00;3.75;;;;;;;19.01;40.74;102690.63;1695954;83;20998;-50
2021/10/02 09:32:36;;;;;;;8.98;4.67;;;;;;;19.03;40.88;102690.13;1697338;84;21607;-50
2021/10/02 09:35:13;;;;;;;6.72;4.45;;;;;;;19.07;40.21;102683.87;1657928;86;20978;-50
2021/10/02 09:37:43;;;;;;;5.15;4.47;;;;;;;19.10;40.03;102686.41;1673275;86;21019;-49
2021/10/02 09:40:19;;;;;;;6.83;3.80;;;;;;;19.10;40.02;102685.09;1673483;86;20994;-50
2021/10/02 09:42:55;;;;;;;4.78;3.17;;;;;;;19.11;40.17;102689.48;1673529;86;21107;-46
2021/10/02 09:45:35;;;;;;;4.95;3.35;;;;;;;19.13;39.52;102683.70;1673633;86;21023;-47
2021/10/02 09:48:07;;;;;;;4.35;3.70;;;;;;;19.15;39.43;102691.13;1641017;87;21577;-50
2021/10/02 09:50:37;;;;;;;3.65;3.25;;;;;;;19.18;39.61;102693.70;1613195;89;21059;-50
2021/10/02 09:53:06;;;;;;;6.80;3.62;;;;;;;19.21;39.53;102687.00;1595602;88;21489;-49
2021/10/02 09:55:38;;;;;;;7.87;3.90;;;;;;;19.24;39.36;102689.58;1612117;87;21061;-50
2021/10/02 09:58:09;;;;;;;14.70;4.53;;;;;;;19.28;39.52;102695.63;1605860;89;21078;-49
2021/10/02 10:00:48;;;;;;;4.78;3.67;;;;;;;19.26;39.65;102691.72;1585048;90;21064;-50
2021/10/02 10:03:17;;;;;;;6.45;3.80;;;;;;;19.29;39.49;102688.98;1612716;89;21610;-50
2021/10/02 10:05:50;;;;;;;5.28;3.20;;;;;;;19.35;39.26;102684.88;1583370;90;21538;-50
2021/10/02 10:08:28;;;;;;;18.45;4.15;;;;;;;19.37;38.52;102679.10;1582174;90;21073;-49
2021/10/02 10:11:11;;;;;;;7.35;3.80;;;;;;;19.37;38.62;102677.78;1558206;91;21522;-51
2021/10/02 10:13:38;;;;;;;6.03;4.03;;;;;;;19.39;38.46;102681.24;1587413;90;21092;-49
2021/10/02 10:16:08;;;;;;;5.90;3.42;;;;;;;19.41;38.58;102679.42;1546370;91;21582;-49
2021/10/02 10:18:38;;;;;;;3.90;3.30;;;;;;;19.43;37.98;102681.56;1583521;90;21108;-49
2021/10/02 10:21:08;;;;;;;5.55;3.25;;;;;;;19.42;38.09;102673.25;1561873;91;21581;-49
2021/10/02 10:23:39;;;;;;;5.90;3.40;;;;;;;19.43;37.63;102672.33;1585980;90;21553;-50
2021/10/02 10:26:12;;;;;;;7.65;4.10;;;;;;;19.43;37.62;102667.05;1557307;91;21177;-48
2021/10/02 10:28:41;;;;;;;4.90;3.35;;;;;;;19.43;38.17;102663.09;1567726;90;20996;-49
2021/10/02 10:31:17;;;;;;;5.05;3.27;;;;;;;19.47;37.93;102666.05;1542901;92;21109;-49
2021/10/02 10:33:48;;;;;;;10.20;3.65;;;;;;;19.48;37.55;102655.91;1543544;92;21281;-49
2021/10/02 10:36:17;;;;;;;6.03;3.60;;;;;;;19.53;37.74;102650.95;1541039;92;21181;-49
2021/10/02 10:38:45;;;;;;;5.03;3.37;;;;;;;19.58;37.48;102646.42;1614105;88;21034;-49
2021/10/02 10:41:13;;;;;;;6.33;3.22;;;;;;;19.59;37.19;102649.45;1631821;88;21617;-48
2021/10/02 10:43:40;;;;;;;4.25;3.40;;;;;;;19.61;37.05;102639.71;1637265;86;21072;-49
2021/10/02 10:46:11;;;;;;;5.80;3.27;;;;;;;19.64;37.11;102643.59;1608118;88;21059;-49
2021/10/02 10:48:39;;;;;;;4.35;3.40;;;;;;;19.70;37.19;102635.49;1621933;88;21026;-48
2021/10/02 10:51:09;;;;;;;4.55;3.20;;;;;;;19.74;37.25;102635.81;1626299;88;21010;-47
2021/10/02 10:53:40;;;;;;;3.27;2.92;;;;;;;19.77;37.20;102631.73;1613621;88;21102;-47
2021/10/02 10:56:08;;;;;;;6.80;3.35;;;;;;;19.76;36.96;102630.02;1620552;87;21168;-51
2021/10/02 10:58:35;;;;;;;5.85;3.33;;;;;;;19.78;36.77;102637.45;1620006;88;21073;-48
2021/10/02 11:01:04;;;;;;;10.20;3.85;;;;;;;19.75;36.75;102625.19;1619296;88;21034;-47
2021/10/02 11:03:43;;;;;;;4.15;3.00;;;;;;;19.76;37.03;102634.86;1614766;88;21133;-49
2021/10/02 11:06:18;;;;;;;5.12;2.85;;;;;;;19.77;37.46;102624.69;1592630;89;21118;-47
2021/10/02 11:09:05;;;;;;;5.67;3.37;;;;;;;19.82;37.32;102620.59;1672848;85;21528;-47
2021/10/02 11:11:53;;;;;;;3.50;3.10;;;;;;;19.88;37.14;102615.12;1673848;85;21087;-50
2021/10/02 11:14:26;;;;;;;7.53;3.40;;;;;;;19.91;36.83;102613.68;1660618;85;21551;-49
2021/10/02 11:17:01;;;;;;;5.83;3.45;;;;;;;19.95;37.00;102612.67;1553588;91;21071;-49
2021/10/02 11:19:34;;;;;;;4.72;2.92;;;;;;;19.96;36.76;102610.01;1525632;94;21118;-47
2021/10/02 11:22:30;;;;;;;4.62;3.20;;;;;;;19.99;36.56;102606.41;1525615;94;21131;-49
2021/10/02 11:24:53;;;;;;;6.23;3.23;;;;;;;19.99;36.24;102606.41;1481916;96;21551;-49
2021/10/02 11:27:24;;;;;;;6.03;3.35;;;;;;;20.01;36.26;102607.23;1486990;96;21071;-50
2021/10/02 11:29:53;;;;;;;3.75;2.95;;;;;;;20.03;36.41;102608.04;1487084;96;21264;-48
2021/10/02 11:32:32;;;;;;;8.78;3.80;;;;;;;20.02;36.08;102601.01;1488048;95;21147;-50
2021/10/02 11:35:21;;;;;;;4.25;2.87;;;;;;;20.02;36.10;102608.94;1496503;95;21011;-47
2021/10/02 11:38:01;;;;;;;5.95;3.27;;;;;;;20.03;36.17;102601.44;1497228;95;21104;-49
2021/10/02 11:40:43;;;;;;;3.15;2.80;;;;;;;20.04;36.09;102601.83;1494694;95;21072;-49
2021/10/02 11:43:22;;;;;;;3.65;3.33;;;;;;;20.05;35.98;102596.97;1482788;95;21132;-48
2021/10/02 11:45:59;;;;;;;4.28;2.95;;;;;;;20.07;36.30;102604.39;1438720;99;21098;-48
2021/10/02 11:48:40;;;;;;;4.62;3.17;;;;;;;20.09;36.31;102605.20;1447564;99;21141;-45
2021/10/02 11:51:23;;;;;;;3.67;3.00;;;;;;;20.13;36.47;102598.91;1376664;103;21183;-49
2021/10/02 11:53:57;;;;;;;8.85;2.98;;;;;;;20.19;36.40;102603.98;1374166;103;21146;-46
2021/10/02 11:56:29;;;;;;;3.45;3.08;;;;;;;20.19;36.57;102604.89;1333486;107;21683;-52
2021/10/02 11:58:58;;;;;;;4.12;3.15;;;;;;;20.20;36.15;102601.32;1347463;103;21121;-48
2021/10/02 12:01:30;;;;;;;6.65;3.35;;;;;;;20.20;36.38;102603.09;1380180;103;21078;-49
2021/10/02 12:04:10;;;;;;;3.95;2.90;;;;;;;20.20;36.61;102602.64;1386402;103;21732;-47
2021/10/02 12:06:44;;;;;;;4.03;2.85;;;;;;;20.22;36.47;102602.58;1392597;102;21150;-48
2021/10/02 12:09:13;;;;;;;3.70;2.87;;;;;;;20.22;36.76;102589.37;1386801;103;21204;-49
2021/10/02 12:11:48;;;;;;;4.40;2.72;;;;;;;20.25;36.84;102593.25;1392197;103;21641;-51
2021/10/02 12:14:17;;;;;;;3.65;2.80;;;;;;;20.30;36.35;102596.58;1390154;101;21637;-49
2021/10/02 12:17:02;;;;;;;5.90;3.12;;;;;;;20.33;36.08;102592.53;1408560;100;21129;-46
2021/10/02 12:19:30;;;;;;;7.75;3.42;;;;;;;20.36;36.23;102595.54;1398749;101;21125;-47
2021/10/02 12:22:03;;;;;;;5.12;4.08;;;;;;;20.39;36.55;102593.65;1401217;101;21677;-48
2021/10/02 12:24:38;;;;;;;5.90;3.55;;;;;;;20.44;36.35;102594.83;1366899;104;21102;-46
2021/10/02 12:27:16;;;;;;;8.85;3.62;;;;;;;20.48;35.96;102588.06;1367134;104;21101;-47
2021/10/02 12:29:50;;;;;;;11.90;3.20;;;;;;;20.50;35.37;102587.55;1375981;103;21190;-49
2021/10/02 12:32:22;;;;;;;2.92;2.47;;;;;;;20.49;35.06;102584.94;1353654;106;21154;-50
2021/10/02 12:34:56;;;;;;;3.95;2.72;;;;;;;20.47;35.23;102584.12;1352455;106;21178;-49
2021/10/02 12:37:31;;;;;;;5.17;2.42;;;;;;;20.46;35.33;102585.93;1351288;106;21204;-47